createdAt,value
2019-06-10T00:02:26.019Z,14.07
2019-06-10T00:04:57.592Z,13.72
2019-06-10T00:07:28.737Z,14.30
2019-06-10T00:10:02.158Z,15.50
2019-06-10T00:12:32.633Z,14.25
2019-06-10T00:15:06.247Z,13.08
2019-06-10T00:17:52.497Z,12.53
2019-06-10T00:20:11.260Z,14.53
2019-06-10T00:22:42.293Z,14.73
2019-06-10T00:25:13.689Z,15.63
2019-06-10T00:27:44.919Z,13.30
2019-06-10T00:30:16.235Z,13.28
2019-06-10T00:32:47.435Z,15.65
2019-06-10T00:35:18.317Z,13.00
2019-06-10T00:37:51.251Z,16.00
2019-06-10T00:40:21.986Z,14.47
2019-06-10T00:42:52.894Z,12.35
2019-06-10T00:45:24.022Z,12.90
2019-06-10T00:48:08.610Z,13.58
2019-06-10T00:50:27.680Z,14.23
2019-06-10T00:53:00.970Z,12.28
2019-06-10T00:55:31.514Z,13.15
2019-06-10T00:58:04.039Z,13.28
2019-06-10T01:00:35.493Z,13.25
2019-06-10T01:03:08.029Z,15.72
2019-06-10T01:05:41.747Z,12.73
2019-06-10T01:08:15.555Z,10.15
2019-06-10T01:10:45.074Z,15.65
2019-06-10T01:13:16.206Z,12.80
2019-06-10T01:15:47.260Z,12.65
2019-06-10T01:18:32.007Z,12.65
2019-06-10T01:20:51.736Z,10.58
2019-06-10T01:23:22.945Z,10.80
2019-06-10T01:25:53.952Z,13.60
2019-06-10T01:28:24.905Z,13.75
2019-06-10T01:30:55.853Z,15.48
2019-06-10T01:33:26.948Z,13.40
2019-06-10T01:35:57.926Z,15.63
2019-06-10T01:38:28.825Z,14.63
2019-06-10T01:41:01.540Z,15.85
2019-06-10T01:43:32.283Z,16.37
2019-06-10T01:46:03.716Z,13.55
2019-06-10T01:48:44.108Z,14.93
2019-06-10T01:51:07.506Z,14.28
2019-06-10T01:53:38.700Z,12.93
2019-06-10T01:56:12.401Z,16.57
2019-06-10T01:58:42.607Z,12.80
2019-06-10T02:01:23.121Z,11.33
2019-06-10T02:03:52.050Z,15.83
2019-06-10T02:06:25.800Z,13.90
2019-06-10T02:08:57.281Z,13.75
2019-06-10T02:11:28.451Z,11.60
2019-06-10T02:14:00.883Z,12.75
2019-06-10T02:16:32.513Z,13.35
2019-06-10T02:19:04.369Z,14.25
2019-06-10T02:21:35.600Z,13.45
2019-06-10T02:24:06.841Z,12.75
2019-06-10T02:26:38.090Z,13.08
2019-06-10T02:29:11.187Z,14.28
2019-06-10T02:31:43.248Z,13.25
2019-06-10T02:34:19.659Z,14.30
2019-06-10T02:36:48.111Z,18.65
2019-06-10T02:39:26.387Z,12.82
2019-06-10T02:41:54.007Z,15.78
2019-06-10T02:44:32.486Z,14.95
2019-06-10T02:46:58.084Z,14.33
2019-06-10T02:49:50.619Z,16.87
2019-06-10T02:52:03.767Z,15.75
2019-06-10T02:54:35.926Z,13.83
2019-06-10T02:57:07.291Z,14.35
2019-06-10T02:59:38.471Z,16.30
2019-06-10T03:02:09.432Z,12.65
2019-06-10T03:04:43.329Z,12.25
2019-06-10T03:07:13.786Z,15.90
2019-06-10T03:09:44.754Z,13.95
2019-06-10T03:12:15.801Z,13.00
2019-06-10T03:14:48.555Z,18.02
2019-06-10T03:17:24.571Z,14.55
2019-06-10T03:19:53.907Z,14.15
2019-06-10T03:22:25.838Z,14.38
2019-06-10T03:24:57.071Z,14.05
2019-06-10T03:27:28.078Z,15.20
2019-06-10T03:29:59.043Z,13.10
2019-06-10T03:32:40.087Z,15.20
2019-06-10T03:35:05.431Z,14.87
2019-06-10T03:37:36.383Z,14.50
2019-06-10T03:40:08.385Z,16.35
2019-06-10T03:42:39.416Z,13.20
2019-06-10T03:45:12.607Z,14.68
2019-06-10T03:47:43.986Z,15.80
2019-06-10T03:50:17.066Z,15.48
2019-06-10T03:52:48.016Z,14.75
2019-06-10T03:55:22.987Z,14.43
2019-06-10T03:57:52.724Z,14.87
2019-06-10T04:00:25.540Z,14.33
2019-06-10T04:02:56.711Z,15.60
2019-06-10T04:05:28.886Z,17.15
2019-06-10T04:08:02.105Z,15.70
2019-06-10T04:10:32.636Z,16.97
2019-06-10T04:13:03.603Z,15.78
2019-06-10T04:15:35.329Z,15.78
2019-06-10T04:18:06.377Z,15.78
2019-06-10T04:20:37.521Z,17.57
2019-06-10T04:23:08.432Z,16.62
2019-06-10T04:25:43.401Z,16.62
2019-06-10T04:28:14.378Z,14.30
2019-06-10T04:30:45.571Z,16.80
2019-06-10T04:33:16.714Z,17.02
2019-06-10T04:35:47.951Z,15.58
2019-06-10T04:38:20.301Z,19.75
2019-06-10T04:40:52.542Z,18.70
2019-06-10T04:43:26.004Z,13.70
2019-06-10T04:45:56.349Z,18.77
2019-06-10T04:48:28.071Z,15.65
2019-06-10T04:51:02.463Z,18.35
2019-06-10T04:53:33.262Z,16.82
2019-06-10T04:56:04.557Z,14.55
2019-06-10T04:58:35.712Z,14.07
2019-06-10T05:01:08.042Z,15.98
2019-06-10T05:03:39.184Z,19.77
2019-06-10T05:06:12.380Z,16.67
2019-06-10T05:08:43.025Z,17.52
2019-06-10T05:11:14.067Z,16.35
2019-06-10T05:13:45.246Z,17.30
2019-06-10T05:16:16.312Z,16.67
2019-06-10T05:18:54.017Z,14.90
2019-06-10T05:21:25.063Z,14.15
2019-06-10T05:23:55.986Z,16.15
2019-06-10T05:26:28.803Z,13.43
2019-06-10T05:29:00.298Z,13.50
2019-06-10T05:31:35.121Z,14.63
2019-06-10T05:34:04.246Z,13.90
2019-06-10T05:36:35.510Z,14.53
2019-06-10T05:39:08.534Z,13.65
2019-06-10T05:41:39.504Z,12.18
2019-06-10T05:44:13.191Z,15.08
2019-06-10T05:46:43.782Z,13.75
2019-06-10T05:49:14.981Z,14.55
2019-06-10T05:51:45.962Z,16.42
2019-06-10T05:54:17.212Z,14.68
2019-06-10T05:56:48.207Z,13.50
2019-06-10T05:59:19.344Z,17.00
2019-06-10T06:01:53.665Z,13.62
2019-06-10T06:04:24.637Z,14.25
2019-06-10T06:06:55.657Z,13.03
2019-06-10T06:09:27.171Z,13.38
2019-06-10T06:11:58.244Z,14.18
2019-06-10T06:14:29.557Z,13.50
2019-06-10T06:17:02.234Z,12.70
2019-06-10T06:19:37.370Z,16.93
2019-06-10T06:22:07.481Z,14.55
2019-06-10T06:24:38.514Z,11.35
2019-06-10T06:27:09.575Z,12.45
2019-06-10T06:29:42.955Z,11.03
2019-06-10T06:32:13.521Z,12.35
2019-06-10T06:34:44.617Z,12.68
2019-06-10T06:37:15.732Z,13.03
2019-06-10T06:39:46.872Z,12.58
2019-06-10T06:42:18.044Z,11.68
2019-06-10T06:44:49.156Z,12.53
2019-06-10T06:47:22.680Z,10.80
2019-06-10T06:49:53.544Z,11.08
2019-06-10T06:52:46.994Z,10.63
2019-06-10T06:54:57.492Z,10.53
2019-06-10T06:57:28.928Z,11.75
2019-06-10T07:00:22.460Z,10.85
2019-06-10T07:02:37.186Z,11.60
2019-06-10T07:05:09.016Z,13.22
2019-06-10T07:07:41.121Z,11.50
2019-06-10T07:10:13.155Z,12.98
2019-06-10T07:12:45.880Z,12.75
2019-06-10T07:15:18.820Z,14.23
2019-06-10T07:17:52.540Z,11.18
2019-06-10T07:20:23.052Z,12.03
2019-06-10T07:22:54.378Z,11.68
2019-06-10T07:25:26.031Z,11.63
2019-06-10T07:27:57.305Z,14.47
2019-06-10T07:30:28.477Z,12.13
2019-06-10T07:32:59.556Z,12.68
2019-06-10T07:35:32.611Z,12.82
2019-06-10T07:38:03.632Z,10.63
2019-06-10T07:40:36.203Z,14.15
2019-06-10T07:43:07.718Z,11.95
2019-06-10T07:45:41.587Z,11.28
2019-06-10T07:48:12.227Z,12.28
2019-06-10T07:50:45.614Z,12.35
2019-06-10T07:53:16.258Z,12.40
2019-06-10T07:55:47.106Z,12.30
2019-06-10T07:58:18.420Z,12.00
2019-06-10T08:00:49.490Z,12.18
2019-06-10T08:03:22.487Z,12.53
2019-06-10T08:05:54.201Z,10.05
2019-06-10T08:08:26.828Z,11.22
2019-06-10T08:10:57.914Z,11.90
2019-06-10T08:13:29.039Z,10.90
2019-06-10T08:16:02.536Z,13.78
2019-06-10T08:18:41.790Z,11.55
2019-06-10T08:21:07.624Z,10.43
2019-06-10T08:23:38.721Z,9.33
2019-06-10T08:26:12.456Z,10.15
2019-06-10T08:28:46.391Z,12.33
2019-06-10T08:31:15.239Z,11.45
2019-06-10T08:33:49.008Z,11.20
2019-06-10T08:36:21.981Z,9.35
2019-06-10T08:38:52.901Z,10.50
2019-06-10T08:41:24.665Z,10.25
2019-06-10T08:43:55.741Z,10.48
2019-06-10T08:46:26.913Z,16.07
2019-06-10T08:48:58.258Z,11.48
2019-06-10T08:51:29.235Z,10.35
2019-06-10T08:54:02.392Z,10.25
2019-06-10T08:56:32.994Z,9.68
2019-06-10T08:59:04.410Z,10.95
2019-06-10T09:01:35.549Z,11.88
2019-06-10T09:04:06.869Z,10.43
2019-06-10T09:06:39.224Z,10.70
2019-06-10T09:09:12.854Z,10.23
2019-06-10T09:11:47.503Z,10.65
2019-06-10T09:14:16.752Z,11.60
2019-06-10T09:16:49.346Z,10.80
2019-06-10T09:19:22.192Z,9.78
2019-06-10T09:21:56.126Z,9.28
2019-06-10T09:24:26.061Z,10.20
2019-06-10T09:26:57.099Z,9.93
2019-06-10T09:29:28.219Z,11.05
2019-06-10T09:31:59.227Z,25.65
2019-06-10T09:34:32.856Z,13.05
2019-06-10T09:37:04.143Z,12.98
2019-06-10T09:39:35.251Z,20.50
2019-06-10T09:42:06.962Z,11.30
2019-06-10T09:44:41.661Z,9.23
2019-06-10T09:47:14.250Z,11.43
2019-06-10T09:49:47.305Z,11.10
2019-06-10T09:52:17.979Z,12.07
2019-06-10T09:54:55.718Z,9.45
2019-06-10T09:57:23.855Z,9.93
2019-06-10T09:59:56.447Z,10.00
2019-06-10T10:02:27.495Z,8.63
2019-06-10T10:05:00.355Z,8.83
2019-06-10T10:07:32.567Z,8.33
2019-06-10T10:10:05.585Z,8.25
2019-06-10T10:12:36.524Z,9.48
2019-06-10T10:15:26.642Z,8.80
2019-06-10T10:17:44.831Z,10.13
2019-06-10T10:20:16.769Z,8.15
2019-06-10T10:22:49.235Z,8.25
2019-06-10T10:25:23.409Z,9.10
2019-06-10T10:27:57.387Z,8.30
2019-06-10T10:30:28.304Z,9.95
2019-06-10T10:32:59.208Z,8.40
2019-06-10T10:35:32.517Z,8.85
2019-06-10T10:38:03.907Z,8.93
2019-06-10T10:40:35.310Z,7.75
2019-06-10T10:43:24.492Z,8.70
2019-06-10T10:45:42.335Z,10.53
2019-06-10T10:48:14.080Z,9.23
2019-06-10T10:50:45.685Z,7.92
2019-06-10T10:53:18.106Z,8.98
2019-06-10T10:55:49.262Z,8.15
2019-06-10T10:58:22.501Z,8.95
2019-06-10T11:00:56.791Z,8.65
2019-06-10T11:03:25.840Z,7.47
2019-06-10T11:06:00.711Z,7.65
2019-06-10T11:08:32.393Z,7.50
2019-06-10T11:11:05.208Z,9.05
2019-06-10T11:13:38.592Z,7.90
2019-06-10T11:16:09.652Z,7.92
2019-06-10T11:18:42.282Z,8.38
2019-06-10T11:21:13.542Z,7.60
2019-06-10T11:23:46.172Z,7.83
2019-06-10T11:26:17.671Z,11.10
2019-06-10T11:28:49.527Z,8.05
2019-06-10T11:31:22.696Z,8.33
2019-06-10T11:33:57.329Z,7.33
2019-06-10T11:36:26.833Z,6.75
2019-06-10T11:38:59.222Z,7.47
2019-06-10T11:41:32.502Z,9.43
2019-06-10T11:44:03.319Z,8.10
2019-06-10T11:46:34.493Z,8.28
2019-06-10T11:49:05.657Z,8.40
2019-06-10T11:51:36.609Z,7.97
2019-06-10T11:54:07.950Z,8.48
2019-06-10T11:56:38.828Z,7.83
2019-06-10T11:59:10.326Z,6.83
2019-06-10T12:01:43.100Z,7.90
2019-06-10T12:04:14.179Z,7.35
2019-06-10T12:06:45.571Z,7.17
2019-06-10T12:09:16.665Z,7.60
2019-06-10T12:11:49.058Z,6.85
2019-06-10T12:14:23.857Z,7.15
2019-06-10T12:19:26.017Z,7.05
2019-06-10T12:22:00.325Z,7.45
2019-06-10T12:24:32.830Z,7.35
2019-06-10T12:27:05.024Z,8.78
2019-06-10T12:29:35.513Z,7.10
2019-06-10T12:32:07.615Z,10.82
2019-06-10T12:34:38.839Z,7.72
2019-06-10T12:37:14.815Z,8.45
2019-06-10T12:39:43.088Z,9.38
2019-06-10T12:42:14.485Z,7.72
2019-06-10T12:44:46.058Z,7.00
2019-06-10T12:47:17.002Z,7.12
2019-06-10T12:49:48.114Z,7.28
2019-06-10T12:52:19.450Z,8.05
2019-06-10T12:54:50.757Z,7.67
2019-06-10T12:57:23.013Z,8.80
2019-06-10T12:59:54.526Z,8.70
2019-06-10T13:02:31.157Z,7.75
2019-06-10T13:04:59.628Z,8.03
2019-06-10T13:07:33.402Z,8.03
2019-06-10T13:10:15.603Z,8.60
2019-06-10T13:12:48.973Z,9.90
2019-06-10T13:15:22.125Z,8.45
2019-06-10T13:17:53.849Z,8.40
2019-06-10T13:20:24.892Z,7.00
2019-06-10T13:22:56.243Z,7.47
2019-06-10T13:25:27.693Z,8.60
2019-06-10T13:27:59.810Z,7.85
2019-06-10T13:30:34.140Z,8.63
2019-06-10T13:33:10.473Z,8.35
2019-06-10T13:35:37.376Z,8.00
2019-06-10T13:38:08.676Z,8.25
2019-06-10T13:40:39.816Z,8.10
2019-06-10T13:43:12.462Z,9.00
2019-06-10T13:45:44.336Z,8.03
2019-06-10T13:48:15.313Z,7.60
2019-06-10T13:50:46.525Z,8.63
2019-06-10T13:53:17.552Z,8.60
2019-06-10T13:55:48.893Z,8.10
2019-06-10T13:58:22.818Z,8.53
2019-06-10T14:00:53.581Z,8.50
2019-06-10T14:03:25.196Z,8.10
2019-06-10T14:05:59.782Z,8.40
2019-06-10T14:08:28.855Z,8.90
2019-06-10T14:11:03.338Z,7.75
2019-06-10T14:13:32.791Z,8.45
2019-06-10T14:16:05.485Z,10.40
2019-06-10T14:18:36.821Z,10.20
2019-06-10T14:21:11.620Z,8.00
2019-06-10T14:23:42.334Z,7.62
2019-06-10T14:26:17.005Z,7.72
2019-06-10T14:28:46.686Z,7.97
2019-06-10T14:31:38.679Z,8.63
2019-06-10T14:33:53.107Z,7.92
2019-06-10T14:36:23.153Z,8.35
2019-06-10T14:38:54.043Z,7.75
2019-06-10T14:41:26.018Z,8.10
2019-06-10T14:43:57.287Z,6.70
2019-06-10T14:46:28.426Z,7.90
2019-06-10T14:48:59.333Z,8.00
2019-06-10T14:51:32.478Z,8.68
2019-06-10T14:54:03.242Z,8.95
2019-06-10T14:56:47.179Z,7.53
2019-06-10T14:59:07.555Z,7.33
2019-06-10T15:01:38.936Z,8.63
2019-06-10T15:04:10.205Z,7.20
2019-06-10T15:06:43.130Z,14.15
2019-06-10T15:09:15.669Z,10.68
2019-06-10T15:11:46.715Z,11.83
2019-06-10T15:14:18.192Z,12.78
2019-06-10T15:16:49.194Z,8.75
2019-06-10T15:19:28.033Z,7.15
2019-06-10T15:21:52.955Z,8.13
2019-06-10T15:24:24.011Z,7.85
2019-06-10T15:27:08.876Z,9.28
2019-06-10T15:29:27.861Z,9.00
2019-06-10T15:32:10.183Z,9.03
2019-06-10T15:34:32.543Z,12.20
2019-06-10T15:37:03.954Z,14.28
2019-06-10T15:39:35.318Z,8.95
2019-06-10T15:42:06.494Z,7.90
2019-06-10T15:44:48.886Z,7.58
2019-06-10T15:47:13.876Z,10.15
2019-06-10T15:49:42.948Z,8.33
2019-06-10T15:52:17.471Z,8.33
2019-06-10T15:54:47.254Z,7.67
2019-06-10T15:57:32.237Z,8.53
2019-06-10T15:59:52.117Z,8.28
2019-06-10T16:02:25.596Z,7.92
2019-06-10T16:04:56.198Z,8.73
2019-06-10T16:07:35.134Z,8.10
2019-06-10T16:10:12.177Z,7.80
2019-06-10T16:12:43.888Z,8.93
2019-06-10T16:15:16.575Z,9.15
2019-06-10T16:17:47.880Z,7.90
2019-06-10T16:20:19.445Z,9.55
2019-06-10T16:22:52.321Z,8.28
2019-06-10T16:25:26.475Z,8.95
2019-06-10T16:27:56.453Z,7.78
2019-06-10T16:30:27.492Z,9.60
2019-06-10T16:32:58.655Z,9.13
2019-06-10T16:35:32.121Z,8.58
2019-06-10T16:38:02.586Z,9.85
2019-06-10T16:40:33.538Z,7.62
2019-06-10T16:43:04.528Z,8.55
2019-06-10T16:45:37.059Z,7.22
2019-06-10T16:48:08.254Z,7.53
2019-06-10T16:50:42.479Z,7.35
2019-06-10T16:53:13.733Z,8.33
2019-06-10T16:55:44.878Z,8.60
2019-06-10T16:58:15.881Z,8.65
2019-06-10T17:00:46.846Z,6.62
2019-06-10T17:03:18.384Z,7.30
2019-06-10T17:05:50.024Z,6.40
2019-06-10T17:08:24.942Z,6.50
2019-06-10T17:10:54.049Z,7.62
2019-06-10T17:13:27.256Z,8.13
2019-06-10T17:15:59.844Z,7.53
2019-06-10T17:18:33.382Z,7.67
2019-06-10T17:21:04.252Z,7.30
2019-06-10T17:23:36.732Z,9.05
2019-06-10T17:26:07.924Z,7.78
2019-06-10T17:28:39.048Z,8.25
2019-06-10T17:31:10.107Z,7.70
2019-06-10T17:33:42.742Z,7.83
2019-06-10T17:36:14.137Z,6.40
2019-06-10T17:38:46.245Z,7.72
2019-06-10T17:41:17.301Z,7.30
2019-06-10T17:43:48.697Z,7.60
2019-06-10T17:46:21.745Z,9.60
2019-06-10T17:48:52.873Z,9.68
2019-06-10T17:51:26.188Z,8.03
2019-06-10T17:53:56.908Z,7.67
2019-06-10T17:56:29.188Z,7.92
2019-06-10T17:59:03.158Z,7.97
2019-06-10T18:01:35.263Z,9.15
2019-06-10T18:04:06.389Z,8.50
2019-06-10T18:06:37.286Z,10.00
2019-06-10T18:09:09.239Z,11.05
2019-06-10T18:11:42.469Z,11.83
2019-06-10T18:14:12.988Z,11.22
2019-06-10T18:16:43.999Z,10.82
2019-06-10T18:19:15.166Z,10.65
2019-06-10T18:21:46.330Z,12.40
2019-06-10T18:24:20.653Z,10.63
2019-06-10T18:26:52.751Z,10.28
2019-06-10T18:29:23.196Z,12.43
2019-06-10T18:31:54.787Z,12.47
2019-06-10T18:34:25.970Z,11.70
2019-06-10T18:36:59.194Z,11.35
2019-06-10T18:39:31.456Z,12.85
2019-06-10T18:42:03.322Z,13.55
2019-06-10T18:44:37.080Z,14.50
2019-06-10T18:47:07.551Z,13.18
2019-06-10T18:49:38.624Z,11.10
2019-06-10T18:52:12.671Z,13.53
2019-06-10T18:54:43.762Z,12.90
2019-06-10T18:57:14.741Z,12.68
2019-06-10T18:59:45.768Z,13.90
2019-06-10T19:02:17.706Z,12.00
2019-06-10T19:04:48.675Z,14.58
2019-06-10T19:07:19.751Z,14.23
2019-06-10T19:09:52.713Z,14.03
2019-06-10T19:12:23.447Z,13.48
2019-06-10T19:14:54.607Z,13.30
2019-06-10T19:17:25.817Z,13.08
2019-06-10T19:19:56.639Z,11.22
2019-06-10T19:22:27.557Z,10.65
2019-06-10T19:24:58.716Z,9.45
2019-06-10T19:27:31.286Z,13.72
2019-06-10T19:30:02.504Z,12.70
2019-06-10T19:32:35.558Z,12.88
2019-06-10T19:35:12.941Z,13.48
2019-06-10T19:37:43.671Z,12.33
2019-06-10T19:40:16.613Z,12.53
2019-06-10T19:42:47.589Z,20.30
2019-06-10T19:45:19.018Z,21.93
2019-06-10T19:47:52.272Z,16.82
2019-06-10T19:50:23.247Z,13.83
2019-06-10T19:52:54.313Z,12.53
2019-06-10T19:55:25.661Z,11.83
2019-06-10T19:57:56.702Z,11.28
2019-06-10T20:00:27.825Z,11.85
2019-06-10T20:02:58.945Z,11.53
2019-06-10T20:05:32.399Z,12.07
2019-06-10T20:08:03.188Z,10.43
2019-06-10T20:10:34.256Z,10.48
2019-06-10T20:13:06.121Z,13.28
2019-06-10T20:15:37.428Z,10.90
2019-06-10T20:18:08.930Z,11.38
2019-06-10T20:20:40.131Z,13.48
2019-06-10T20:23:11.255Z,14.93
2019-06-10T20:25:44.470Z,12.40
2019-06-10T20:28:15.392Z,10.72
2019-06-10T20:30:49.018Z,15.98
2019-06-10T20:33:33.864Z,13.65
2019-06-10T20:36:07.966Z,16.07
2019-06-10T20:38:36.234Z,15.58
2019-06-10T20:41:07.552Z,16.82
2019-06-10T20:43:39.223Z,15.72
2019-06-10T20:46:12.811Z,16.52
2019-06-10T20:48:45.188Z,17.27
2019-06-10T20:51:15.890Z,18.32
2019-06-10T20:53:47.973Z,16.00
2019-06-10T20:56:20.412Z,17.55
2019-06-10T20:58:52.710Z,17.40
2019-06-10T21:01:25.135Z,16.40
2019-06-10T21:03:56.748Z,19.70
2019-06-10T21:06:32.567Z,18.35
2019-06-10T21:09:04.181Z,16.32
2019-06-10T21:11:35.166Z,21.82
2019-06-10T21:14:06.321Z,20.00
2019-06-10T21:16:37.456Z,19.20
2019-06-10T21:19:10.026Z,19.60
2019-06-10T21:21:45.116Z,20.25
2019-06-10T21:24:13.963Z,18.80
2019-06-10T21:26:47.057Z,15.85
2019-06-10T21:29:17.566Z,16.93
2019-06-10T21:31:50.433Z,17.45
2019-06-10T21:34:22.529Z,16.25
2019-06-10T21:36:54.347Z,15.95
2019-06-10T21:39:27.088Z,22.27
2019-06-10T21:41:58.254Z,20.08
2019-06-10T21:44:29.346Z,16.37
2019-06-10T21:47:02.460Z,17.40
2019-06-10T21:49:33.776Z,19.48
2019-06-10T21:52:05.120Z,21.02
2019-06-10T21:54:36.306Z,20.52
2019-06-10T21:57:07.478Z,16.45
2019-06-10T21:59:38.358Z,19.48
2019-06-10T22:02:09.516Z,17.05
2019-06-10T22:04:40.682Z,16.25
2019-06-10T22:07:11.826Z,16.90
2019-06-10T22:09:44.114Z,15.68
2019-06-10T22:12:15.506Z,16.00
2019-06-10T22:14:46.790Z,19.02
2019-06-10T22:17:17.888Z,18.90
2019-06-10T22:19:48.878Z,14.80
2019-06-10T22:22:19.897Z,18.32
2019-06-10T22:24:53.357Z,24.05
2019-06-10T22:27:24.388Z,18.92
2019-06-10T22:29:57.050Z,18.57
2019-06-10T22:32:28.748Z,20.45
2019-06-10T22:35:00.075Z,24.20
2019-06-10T22:37:32.989Z,22.37
2019-06-10T22:40:05.762Z,23.75
2019-06-10T22:42:36.800Z,23.30
2019-06-10T22:45:08.848Z,22.87
2019-06-10T22:47:39.770Z,19.17
2019-06-10T22:50:12.611Z,21.68
2019-06-10T22:52:43.786Z,18.98
